Federal Oshima — VRVY8 — position and weather

sailwx.info

Track history (hours):
 
Tides and Currents Weather Stations Pressure Air Temp Water Temp Dewpoint Dewpoint Depression Visibility Wind Speed Wind Dir Waves Ship Positions

Federal Oshima

Last reported at 2015-Apr-27 00:20 UTC. Time now 2015-May-03 23:57 UTC.
Position N 49°55' W 003°11'.

Length 200 m; draft 9 m.

Type: Cargo ship. MMSI: 477675000.

Date/timePositionNaut miles runAvg speedWind from/ knotsBaromVisibWave heightAir tempDewpointWater temp
2015-Apr-27 00:20N 49°55' W 003°11'1111.9
2015-Apr-26 23:23N 49°58' W 002°54'1012.2
2015-Apr-26 22:33N 50°01' W 002°39'11813.1
2015-Apr-26 13:33N 50°32' E 000°19'1212.4
2015-Apr-26 12:33N 50°36' E 000°37'1313.2
2015-Apr-26 11:33N 50°43' E 000°55'1513.9
2015-Apr-26 10:28N 50°51' E 001°14'1213.7
2015-Apr-26 09:34N 51°01' E 001°27'1212.3
2015-Apr-26 08:33N 51°10' E 001°40'1211.7
2015-Apr-26 07:33N 51°20' E 001°51'1111.3
2015-Apr-26 06:33N 51°29' E 002°01'1211.8
2015-Apr-26 05:33N 51°38' E 002°13'1312.2
2015-Apr-26 04:31N 51°48' E 002°26'12412.3
2015-Apr-25 18:27N 53°25' E 004°33'1011.6
2015-Apr-25 17:33N 53°31' E 004°47'1313.0
2015-Apr-25 16:33N 53°36' E 005°08'1312.7
2015-Apr-25 15:33N 53°40' E 005°28'1212.0
2015-Apr-25 14:33N 53°43' E 005°47'1211.7
2015-Apr-25 13:33N 53°47' E 006°06'1111.3
2015-Apr-25 12:33N 53°50' E 006°24'2912.3
2015-Apr-25 10:10N 53°57' E 007°13'6 9.8
2015-Apr-25 09:31N 53°58' E 007°23'9 9.5
2015-Apr-25 08:33N 53°59' E 007°39'1111.3
2015-Apr-25 07:33N 53°52' E 007°54'1515.3
2015-Apr-25 06:33N 53°44' E 008°15'1414.3
2015-Apr-25 05:33N 53°34' E 008°33'10 9.9
2015-Apr-25 04:33N 53°24' E 008°30'3 2.8
2015-Apr-25 03:31N 53°21' E 008°30'0 0.0
2015-Apr-25 02:31N 53°21' E 008°30'0 0.0
2015-Apr-25 01:28N 53°21' E 008°30'0 0.0
2015-Apr-25 00:31N 53°21' E 008°30'0 0.0
2015-Apr-24 23:31N 53°21' E 008°30'0 0.0
2015-Apr-24 22:31N 53°21' E 008°30'0 0.0
2015-Apr-24 21:31N 53°21' E 008°30'0 0.0
2015-Apr-24 20:31N 53°21' E 008°30'0 0.0
2015-Apr-24 19:31N 53°21' E 008°30'0 0.0
2015-Apr-24 18:31N 53°21' E 008°30'0 0.0
2015-Apr-24 17:31N 53°21' E 008°30'0 0.0
2015-Apr-24 16:31N 53°21' E 008°30'0 0.0
2015-Apr-24 15:31N 53°21' E 008°30'0 0.0
2015-Apr-24 14:28N 53°21' E 008°30'0 0.0
2015-Apr-24 13:31N 53°21' E 008°30'0 0.0
2015-Apr-24 12:31N 53°21' E 008°30'0 0.0
2015-Apr-24 11:31N 53°21' E 008°30'0 0.0
2015-Apr-24 10:31N 53°21' E 008°30'0 0.0
2015-Apr-24 09:31N 53°21' E 008°30'0 0.0
2015-Apr-24 08:31N 53°21' E 008°30'0 0.0
2015-Apr-24 07:31N 53°21' E 008°30'0 0.0
2015-Apr-24 06:31N 53°21' E 008°30'0 0.0
2015-Apr-24 05:31N 53°21' E 008°30'0 0.0
2015-Apr-24 04:31N 53°21' E 008°30'0 0.0
2015-Apr-24 03:31N 53°21' E 008°30'0 0.0
2015-Apr-24 02:22N 53°21' E 008°30'0 0.1
2015-Apr-24 01:34N 53°21' E 008°30'9 9.4
2015-Apr-24 00:33N 53°31' E 008°32'9 8.7
2015-Apr-23 23:33N 53°38' E 008°25'1514.6
2015-Apr-23 22:33N 53°48' E 008°07'1312.9
2015-Apr-23 21:33N 53°53' E 007°47'1010.5
2015-Apr-23 20:33N 53°55' E 007°29'6 5.5
2015-Apr-23 19:33N 53°53' E 007°20'1110.6
2015-Apr-23 18:32N 53°51' E 007°02'1111.2
2015-Apr-23 17:33N 53°48' E 006°44'1111.1
2015-Apr-23 16:33N 53°45' E 006°26'1111.4
2015-Apr-23 15:33N 53°42' E 006°07'1111.0
2015-Apr-23 14:33N 53°39' E 005°50'1211.9
2015-Apr-23 13:33N 53°35' E 005°31'1110.9
2015-Apr-23 12:33N 53°32' E 005°13'10 9.6
2015-Apr-23 11:33N 53°28' E 004°58'1111.3
2015-Apr-23 10:33N 53°23' E 004°42'1211.9
2015-Apr-23 09:33N 53°12' E 004°32'1111.0
2015-Apr-23 08:31N 53°02' E 004°23'1111.4
2015-Apr-23 07:33N 52°52' E 004°16'1413.8
2015-Apr-23 06:34N 52°42' E 004°01'1413.9
2015-Apr-23 05:33N 52°31' E 003°46'1414.1
2015-Apr-23 04:33N 52°20' E 003°31'1413.6
2015-Apr-23 03:33N 52°12' E 003°14'1413.4
2015-Apr-23 02:30N 52°03' E 002°56'1112.1
2015-Apr-23 01:33N 51°52' E 002°49'1211.8
2015-Apr-23 00:33N 51°47' E 003°06'10 9.6
2015-Apr-22 23:33N 51°41' E 003°19'1110.6
2015-Apr-22 22:33N 51°31' E 003°26'8 8.6
2015-Apr-22 21:33N 51°26' E 003°37'1212.3
2015-Apr-22 20:34N 51°23' E 003°56'1010.3
2015-Apr-22 19:33N 51°24' E 004°12'4 4.4
2015-Apr-22 18:33N 51°21' E 004°17'1 1.4
2015-Apr-22 17:33N 51°19' E 004°19'3 2.8
2015-Apr-22 16:31N 51°17' E 004°21'0 0.0
2015-Apr-22 15:31N 51°17' E 004°21'0 0.0
2015-Apr-22 14:28N 51°17' E 004°21'0 0.0
2015-Apr-22 13:31N 51°17' E 004°21'0 0.0
2015-Apr-22 12:31N 51°17' E 004°21'0 0.0
2015-Apr-22 11:31N 51°17' E 004°21'0 0.0
2015-Apr-22 10:31N 51°17' E 004°21'0 0.0
2015-Apr-22 09:31N 51°17' E 004°21'0 0.0
2015-Apr-22 08:31N 51°17' E 004°21'0 0.0
2015-Apr-22 07:31N 51°17' E 004°21'0 0.0
2015-Apr-22 06:31N 51°17' E 004°21'0 0.0
2015-Apr-22 05:31N 51°17' E 004°21'0 0.0
2015-Apr-22 04:31N 51°17' E 004°21'0 0.0
2015-Apr-22 03:31N 51°17' E 004°21'0 0.0
2015-Apr-22 02:28N 51°17' E 004°21'0 0.0
2015-Apr-22 01:31N 51°17' E 004°21'0 0.0
2015-Apr-22 00:31N 51°17' E 004°21'0 0.0
2015-Apr-21 23:25N 51°17' E 004°21'0 0.0
2015-Apr-21 22:31N 51°17' E 004°21'0 0.0
2015-Apr-21 21:31N 51°17' E 004°21'0 0.0
2015-Apr-21 20:31N 51°17' E 004°21'0 0.0
2015-Apr-21 19:31N 51°17' E 004°21'0 0.0
2015-Apr-21 18:31N 51°17' E 004°21'0 0.0
2015-Apr-21 17:31N 51°17' E 004°21'0 0.0
2015-Apr-21 16:31N 51°17' E 004°21'0 0.0
2015-Apr-21 15:28N 51°17' E 004°21'0 0.0
2015-Apr-21 14:31N 51°17' E 004°21'0 0.0
2015-Apr-21 13:31N 51°17' E 004°21'0 0.0
2015-Apr-21 12:31N 51°17' E 004°21'0 0.0
2015-Apr-21 11:31N 51°17' E 004°21'0 0.0
2015-Apr-21 10:31N 51°17' E 004°21'0 0.0
2015-Apr-21 09:31N 51°17' E 004°21'0 0.0
2015-Apr-21 08:31N 51°17' E 004°21'0 0.0
2015-Apr-21 07:31N 51°17' E 004°21'0 0.0
2015-Apr-21 06:31N 51°17' E 004°21'0 0.0
2015-Apr-21 05:31N 51°17' E 004°21'0 0.0
2015-Apr-21 04:28N 51°17' E 004°21'0 0.0
2015-Apr-21 03:31N 51°17' E 004°21'0 0.0
2015-Apr-21 02:31N 51°17' E 004°21'0 0.0
2015-Apr-21 01:31N 51°17' E 004°21'0 0.0
2015-Apr-21 00:28N 51°17' E 004°21'0 0.0
2015-Apr-20 23:31N 51°17' E 004°21'0 0.0
2015-Apr-20 22:31N 51°17' E 004°21'0 0.0
2015-Apr-20 21:31N 51°17' E 004°21'0 0.0
2015-Apr-20 20:28N 51°17' E 004°21'0 0.0
2015-Apr-20 19:31N 51°17' E 004°21'0 0.0
2015-Apr-20 18:31N 51°17' E 004°21'0 0.0
2015-Apr-20 17:31N 51°17' E 004°21'0 0.0
2015-Apr-20 16:31N 51°17' E 004°21'0 0.0
2015-Apr-20 15:31N 51°17' E 004°21'0 0.0
2015-Apr-20 14:31N 51°17' E 004°21'0 0.0
2015-Apr-20 13:31N 51°17' E 004°21'0 0.0
2015-Apr-20 12:31N 51°17' E 004°21'0 0.0
2015-Apr-20 11:31N 51°17' E 004°21'0 0.0
2015-Apr-20 10:31N 51°17' E 004°21'0 0.0
2015-Apr-20 09:31N 51°17' E 004°21'0 0.0
2015-Apr-20 08:31N 51°17' E 004°21'0 0.0
2015-Apr-20 07:31N 51°17' E 004°21'0 0.0
2015-Apr-20 06:31N 51°17' E 004°21'0 0.0
2015-Apr-20 05:31N 51°17' E 004°21'0 0.0
2015-Apr-20 04:31N 51°17' E 004°21'0 0.0
2015-Apr-20 03:31N 51°17' E 004°21'0 0.0
2015-Apr-20 02:31N 51°17' E 004°21'0 0.0
2015-Apr-20 01:28N 51°17' E 004°21'0 0.0
2015-Apr-20 00:31N 51°17' E 004°21'0 0.0
2015-Apr-19 23:31N 51°17' E 004°21'0 0.0
2015-Apr-19 22:31N 51°17' E 004°21'0 0.0
2015-Apr-19 21:31N 51°17' E 004°21'0 0.0
2015-Apr-19 20:31N 51°17' E 004°21'0 0.0
2015-Apr-19 19:31N 51°17' E 004°21'0 0.0
2015-Apr-19 18:31N 51°17' E 004°21'0 0.0
2015-Apr-19 17:31N 51°17' E 004°21'0 0.0
2015-Apr-19 16:31N 51°17' E 004°21'0 0.0
2015-Apr-19 15:31N 51°17' E 004°21'0 0.0
2015-Apr-19 14:31N 51°17' E 004°21'0 0.0
2015-Apr-19 13:31N 51°17' E 004°21'0 0.0
2015-Apr-19 12:31N 51°17' E 004°21'0 0.0
2015-Apr-19 11:31N 51°17' E 004°21'0 0.0
2015-Apr-19 10:31N 51°17' E 004°21'0 0.0
2015-Apr-19 09:31N 51°17' E 004°21'0 0.0
2015-Apr-19 08:31N 51°17' E 004°21'0 0.0
2015-Apr-19 07:31N 51°17' E 004°21'0 0.0
2015-Apr-19 06:31N 51°17' E 004°21'0 0.0
2015-Apr-19 05:31N 51°17' E 004°21'0 0.0
2015-Apr-19 04:28N 51°17' E 004°21'0 0.0
2015-Apr-19 03:31N 51°17' E 004°21'0 0.0
2015-Apr-19 02:31N 51°17' E 004°21'0 0.0
2015-Apr-19 01:28N 51°17' E 004°21'0 0.0
2015-Apr-19 00:31N 51°17' E 004°21'0 0.0
2015-Apr-18 23:31N 51°17' E 004°21'0 0.0
2015-Apr-18 22:31N 51°17' E 004°21'0 0.0
2015-Apr-18 21:31N 51°17' E 004°21'0 0.0
2015-Apr-18 20:31N 51°17' E 004°21'0 0.0
2015-Apr-18 19:31N 51°17' E 004°21'0 0.0
2015-Apr-18 18:31N 51°17' E 004°21'0 0.0
2015-Apr-18 17:31N 51°17' E 004°21'0 0.0
2015-Apr-18 16:31N 51°17' E 004°21'0 0.0
2015-Apr-18 15:31N 51°17' E 004°21'0 0.0
2015-Apr-18 14:31N 51°17' E 004°21'0 0.0
2015-Apr-18 13:31N 51°17' E 004°21'0 0.0
2015-Apr-18 12:31N 51°17' E 004°21'0 0.0
2015-Apr-18 11:31N 51°17' E 004°21'0 0.0
2015-Apr-18 10:31N 51°17' E 004°21'1 1.4
2015-Apr-18 09:33N 51°16' E 004°21'2 1.8
2015-Apr-18 08:33N 51°15' E 004°24'0 0.2
2015-Apr-18 07:33N 51°15' E 004°24'0 0.0
2015-Apr-18 06:33N 51°15' E 004°24'0 0.0
2015-Apr-18 05:33N 51°16' E 004°24'0 0.0
2015-Apr-18 04:33N 51°15' E 004°24'0 0.0
2015-Apr-18 03:33N 51°15' E 004°24'0 0.0
2015-Apr-18 02:33N 51°15' E 004°24'0 0.0
2015-Apr-18 01:33N 51°15' E 004°24'0 0.0
2015-Apr-18 00:30N 51°15' E 004°24'0 0.0
2015-Apr-17 23:33N 51°15' E 004°24'0 0.0
2015-Apr-17 22:33N 51°15' E 004°24'0 0.0
2015-Apr-17 21:33N 51°15' E 004°24'0 0.0
2015-Apr-17 20:33N 51°15' E 004°24'0 0.0
2015-Apr-17 19:33N 51°16' E 004°24'0 0.0
2015-Apr-17 18:33N 51°15' E 004°24'0 0.0
2015-Apr-17 17:33N 51°15' E 004°24'0 0.0
2015-Apr-17 16:33N 51°15' E 004°24'0 0.0
2015-Apr-17 15:33N 51°15' E 004°24'0 0.0
2015-Apr-17 14:33N 51°15' E 004°24'0 0.0
2015-Apr-17 13:33N 51°16' E 004°24'0 0.0
2015-Apr-17 12:33N 51°15' E 004°24'0 0.0
2015-Apr-17 11:33N 51°15' E 004°24'0 0.0
2015-Apr-17 10:33N 51°15' E 004°24'0 0.0
2015-Apr-17 09:33N 51°15' E 004°24'0 0.0
2015-Apr-17 08:33N 51°16' E 004°24'0 0.0
2015-Apr-17 07:33N 51°15' E 004°24'0 0.0
2015-Apr-17 06:33N 51°15' E 004°24'0 0.0
2015-Apr-17 05:33N 51°16' E 004°24'0 0.0
2015-Apr-17 04:30N 51°15' E 004°24'0 0.0
2015-Apr-17 03:33N 51°15' E 004°24'0 0.0
2015-Apr-17 02:33N 51°15' E 004°24'0 0.0
2015-Apr-17 01:33N 51°15' E 004°24'0 0.0
2015-Apr-17 00:33N 51°15' E 004°24'  
Track history (hours):
 
Tides and Currents Weather Stations Pressure Air Temp Water Temp Dewpoint Dewpoint Depression Visibility Wind Speed Wind Dir Waves Ship Positions

Federal Oshima

Last reported at 2015-Apr-27 00:20 UTC. Time now 2015-May-03 23:57 UTC.
Position N 49°55' W 003°11'.

Length 200 m; draft 9 m.

Type: Cargo ship. MMSI: 477675000.

Date/timePositionNaut miles runAvg speedWind from/ knotsBaromVisibWave heightAir tempDewpointWater temp
2015-Apr-27 00:20N 49°55' W 003°11'1111.9
2015-Apr-26 23:23N 49°58' W 002°54'1012.2
2015-Apr-26 22:33N 50°01' W 002°39'11813.1
2015-Apr-26 13:33N 50°32' E 000°19'1212.4
2015-Apr-26 12:33N 50°36' E 000°37'1313.2
2015-Apr-26 11:33N 50°43' E 000°55'1513.9
2015-Apr-26 10:28N 50°51' E 001°14'1213.7
2015-Apr-26 09:34N 51°01' E 001°27'1212.3
2015-Apr-26 08:33N 51°10' E 001°40'1211.7
2015-Apr-26 07:33N 51°20' E 001°51'1111.3
2015-Apr-26 06:33N 51°29' E 002°01'1211.8
2015-Apr-26 05:33N 51°38' E 002°13'1312.2
2015-Apr-26 04:31N 51°48' E 002°26'12412.3
2015-Apr-25 18:27N 53°25' E 004°33'1011.6
2015-Apr-25 17:33N 53°31' E 004°47'1313.0
2015-Apr-25 16:33N 53°36' E 005°08'1312.7
2015-Apr-25 15:33N 53°40' E 005°28'1212.0
2015-Apr-25 14:33N 53°43' E 005°47'1211.7
2015-Apr-25 13:33N 53°47' E 006°06'1111.3
2015-Apr-25 12:33N 53°50' E 006°24'2912.3
2015-Apr-25 10:10N 53°57' E 007°13'6 9.8
2015-Apr-25 09:31N 53°58' E 007°23'9 9.5
2015-Apr-25 08:33N 53°59' E 007°39'1111.3
2015-Apr-25 07:33N 53°52' E 007°54'1515.3
2015-Apr-25 06:33N 53°44' E 008°15'1414.3
2015-Apr-25 05:33N 53°34' E 008°33'10 9.9
2015-Apr-25 04:33N 53°24' E 008°30'3 2.8
2015-Apr-25 03:31N 53°21' E 008°30'0 0.0
2015-Apr-25 02:31N 53°21' E 008°30'0 0.0
2015-Apr-25 01:28N 53°21' E 008°30'0 0.0
2015-Apr-25 00:31N 53°21' E 008°30'0 0.0
2015-Apr-24 23:31N 53°21' E 008°30'0 0.0
2015-Apr-24 22:31N 53°21' E 008°30'0 0.0
2015-Apr-24 21:31N 53°21' E 008°30'0 0.0
2015-Apr-24 20:31N 53°21' E 008°30'0 0.0
2015-Apr-24 19:31N 53°21' E 008°30'0 0.0
2015-Apr-24 18:31N 53°21' E 008°30'0 0.0
2015-Apr-24 17:31N 53°21' E 008°30'0 0.0
2015-Apr-24 16:31N 53°21' E 008°30'0 0.0
2015-Apr-24 15:31N 53°21' E 008°30'0 0.0
2015-Apr-24 14:28N 53°21' E 008°30'0 0.0
2015-Apr-24 13:31N 53°21' E 008°30'0 0.0
2015-Apr-24 12:31N 53°21' E 008°30'0 0.0
2015-Apr-24 11:31N 53°21' E 008°30'0 0.0
2015-Apr-24 10:31N 53°21' E 008°30'0 0.0
2015-Apr-24 09:31N 53°21' E 008°30'0 0.0
2015-Apr-24 08:31N 53°21' E 008°30'0 0.0
2015-Apr-24 07:31N 53°21' E 008°30'0 0.0
2015-Apr-24 06:31N 53°21' E 008°30'0 0.0
2015-Apr-24 05:31N 53°21' E 008°30'0 0.0
2015-Apr-24 04:31N 53°21' E 008°30'0 0.0
2015-Apr-24 03:31N 53°21' E 008°30'0 0.0
2015-Apr-24 02:22N 53°21' E 008°30'0 0.1
2015-Apr-24 01:34N 53°21' E 008°30'9 9.4
2015-Apr-24 00:33N 53°31' E 008°32'9 8.7
2015-Apr-23 23:33N 53°38' E 008°25'1514.6
2015-Apr-23 22:33N 53°48' E 008°07'1312.9
2015-Apr-23 21:33N 53°53' E 007°47'1010.5
2015-Apr-23 20:33N 53°55' E 007°29'6 5.5
2015-Apr-23 19:33N 53°53' E 007°20'1110.6
2015-Apr-23 18:32N 53°51' E 007°02'1111.2
2015-Apr-23 17:33N 53°48' E 006°44'1111.1
2015-Apr-23 16:33N 53°45' E 006°26'1111.4
2015-Apr-23 15:33N 53°42' E 006°07'1111.0
2015-Apr-23 14:33N 53°39' E 005°50'1211.9
2015-Apr-23 13:33N 53°35' E 005°31'1110.9
2015-Apr-23 12:33N 53°32' E 005°13'10 9.6
2015-Apr-23 11:33N 53°28' E 004°58'1111.3
2015-Apr-23 10:33N 53°23' E 004°42'1211.9
2015-Apr-23 09:33N 53°12' E 004°32'1111.0
2015-Apr-23 08:31N 53°02' E 004°23'1111.4
2015-Apr-23 07:33N 52°52' E 004°16'1413.8
2015-Apr-23 06:34N 52°42' E 004°01'1413.9
2015-Apr-23 05:33N 52°31' E 003°46'1414.1
2015-Apr-23 04:33N 52°20' E 003°31'1413.6
2015-Apr-23 03:33N 52°12' E 003°14'1413.4
2015-Apr-23 02:30N 52°03' E 002°56'1112.1
2015-Apr-23 01:33N 51°52' E 002°49'1211.8
2015-Apr-23 00:33N 51°47' E 003°06'10 9.6
2015-Apr-22 23:33N 51°41' E 003°19'1110.6
2015-Apr-22 22:33N 51°31' E 003°26'8 8.6
2015-Apr-22 21:33N 51°26' E 003°37'1212.3
2015-Apr-22 20:34N 51°23' E 003°56'1010.3
2015-Apr-22 19:33N 51°24' E 004°12'4 4.4
2015-Apr-22 18:33N 51°21' E 004°17'1 1.4
2015-Apr-22 17:33N 51°19' E 004°19'3 2.8
2015-Apr-22 16:31N 51°17' E 004°21'0 0.0
2015-Apr-22 15:31N 51°17' E 004°21'0 0.0
2015-Apr-22 14:28N 51°17' E 004°21'0 0.0
2015-Apr-22 13:31N 51°17' E 004°21'0 0.0
2015-Apr-22 12:31N 51°17' E 004°21'0 0.0
2015-Apr-22 11:31N 51°17' E 004°21'0 0.0
2015-Apr-22 10:31N 51°17' E 004°21'0 0.0
2015-Apr-22 09:31N 51°17' E 004°21'0 0.0
2015-Apr-22 08:31N 51°17' E 004°21'0 0.0
2015-Apr-22 07:31N 51°17' E 004°21'0 0.0
2015-Apr-22 06:31N 51°17' E 004°21'0 0.0
2015-Apr-22 05:31N 51°17' E 004°21'0 0.0
2015-Apr-22 04:31N 51°17' E 004°21'0 0.0
2015-Apr-22 03:31N 51°17' E 004°21'0 0.0
2015-Apr-22 02:28N 51°17' E 004°21'0 0.0
2015-Apr-22 01:31N 51°17' E 004°21'0 0.0
2015-Apr-22 00:31N 51°17' E 004°21'0 0.0
2015-Apr-21 23:25N 51°17' E 004°21'0 0.0
2015-Apr-21 22:31N 51°17' E 004°21'0 0.0
2015-Apr-21 21:31N 51°17' E 004°21'0 0.0
2015-Apr-21 20:31N 51°17' E 004°21'0 0.0
2015-Apr-21 19:31N 51°17' E 004°21'0 0.0
2015-Apr-21 18:31N 51°17' E 004°21'0 0.0
2015-Apr-21 17:31N 51°17' E 004°21'0 0.0
2015-Apr-21 16:31N 51°17' E 004°21'0 0.0
2015-Apr-21 15:28N 51°17' E 004°21'0 0.0
2015-Apr-21 14:31N 51°17' E 004°21'0 0.0
2015-Apr-21 13:31N 51°17' E 004°21'0 0.0
2015-Apr-21 12:31N 51°17' E 004°21'0 0.0
2015-Apr-21 11:31N 51°17' E 004°21'0 0.0
2015-Apr-21 10:31N 51°17' E 004°21'0 0.0
2015-Apr-21 09:31N 51°17' E 004°21'0 0.0
2015-Apr-21 08:31N 51°17' E 004°21'0 0.0
2015-Apr-21 07:31N 51°17' E 004°21'0 0.0
2015-Apr-21 06:31N 51°17' E 004°21'0 0.0
2015-Apr-21 05:31N 51°17' E 004°21'0 0.0
2015-Apr-21 04:28N 51°17' E 004°21'0 0.0
2015-Apr-21 03:31N 51°17' E 004°21'0 0.0
2015-Apr-21 02:31N 51°17' E 004°21'0 0.0
2015-Apr-21 01:31N 51°17' E 004°21'0 0.0
2015-Apr-21 00:28N 51°17' E 004°21'0 0.0
2015-Apr-20 23:31N 51°17' E 004°21'0 0.0
2015-Apr-20 22:31N 51°17' E 004°21'0 0.0
2015-Apr-20 21:31N 51°17' E 004°21'0 0.0
2015-Apr-20 20:28N 51°17' E 004°21'0 0.0
2015-Apr-20 19:31N 51°17' E 004°21'0 0.0
2015-Apr-20 18:31N 51°17' E 004°21'0 0.0
2015-Apr-20 17:31N 51°17' E 004°21'0 0.0
2015-Apr-20 16:31N 51°17' E 004°21'0 0.0
2015-Apr-20 15:31N 51°17' E 004°21'0 0.0
2015-Apr-20 14:31N 51°17' E 004°21'0 0.0
2015-Apr-20 13:31N 51°17' E 004°21'0 0.0
2015-Apr-20 12:31N 51°17' E 004°21'0 0.0
2015-Apr-20 11:31N 51°17' E 004°21'0 0.0
2015-Apr-20 10:31N 51°17' E 004°21'0 0.0
2015-Apr-20 09:31N 51°17' E 004°21'0 0.0
2015-Apr-20 08:31N 51°17' E 004°21'0 0.0
2015-Apr-20 07:31N 51°17' E 004°21'0 0.0
2015-Apr-20 06:31N 51°17' E 004°21'0 0.0
2015-Apr-20 05:31N 51°17' E 004°21'0 0.0
2015-Apr-20 04:31N 51°17' E 004°21'0 0.0
2015-Apr-20 03:31N 51°17' E 004°21'0 0.0
2015-Apr-20 02:31N 51°17' E 004°21'0 0.0
2015-Apr-20 01:28N 51°17' E 004°21'0 0.0
2015-Apr-20 00:31N 51°17' E 004°21'0 0.0
2015-Apr-19 23:31N 51°17' E 004°21'0 0.0
2015-Apr-19 22:31N 51°17' E 004°21'0 0.0
2015-Apr-19 21:31N 51°17' E 004°21'0 0.0
2015-Apr-19 20:31N 51°17' E 004°21'0 0.0
2015-Apr-19 19:31N 51°17' E 004°21'0 0.0
2015-Apr-19 18:31N 51°17' E 004°21'0 0.0
2015-Apr-19 17:31N 51°17' E 004°21'0 0.0
2015-Apr-19 16:31N 51°17' E 004°21'0 0.0
2015-Apr-19 15:31N 51°17' E 004°21'0 0.0
2015-Apr-19 14:31N 51°17' E 004°21'0 0.0
2015-Apr-19 13:31N 51°17' E 004°21'0 0.0
2015-Apr-19 12:31N 51°17' E 004°21'0 0.0
2015-Apr-19 11:31N 51°17' E 004°21'0 0.0
2015-Apr-19 10:31N 51°17' E 004°21'0 0.0
2015-Apr-19 09:31N 51°17' E 004°21'0 0.0
2015-Apr-19 08:31N 51°17' E 004°21'0 0.0
2015-Apr-19 07:31N 51°17' E 004°21'0 0.0
2015-Apr-19 06:31N 51°17' E 004°21'0 0.0
2015-Apr-19 05:31N 51°17' E 004°21'0 0.0
2015-Apr-19 04:28N 51°17' E 004°21'0 0.0
2015-Apr-19 03:31N 51°17' E 004°21'0 0.0
2015-Apr-19 02:31N 51°17' E 004°21'0 0.0
2015-Apr-19 01:28N 51°17' E 004°21'0 0.0
2015-Apr-19 00:31N 51°17' E 004°21'0 0.0
2015-Apr-18 23:31N 51°17' E 004°21'0 0.0
2015-Apr-18 22:31N 51°17' E 004°21'0 0.0
2015-Apr-18 21:31N 51°17' E 004°21'0 0.0
2015-Apr-18 20:31N 51°17' E 004°21'0 0.0
2015-Apr-18 19:31N 51°17' E 004°21'0 0.0
2015-Apr-18 18:31N 51°17' E 004°21'0 0.0
2015-Apr-18 17:31N 51°17' E 004°21'0 0.0
2015-Apr-18 16:31N 51°17' E 004°21'0 0.0
2015-Apr-18 15:31N 51°17' E 004°21'0 0.0
2015-Apr-18 14:31N 51°17' E 004°21'0 0.0
2015-Apr-18 13:31N 51°17' E 004°21'0 0.0
2015-Apr-18 12:31N 51°17' E 004°21'0 0.0
2015-Apr-18 11:31N 51°17' E 004°21'0 0.0
2015-Apr-18 10:31N 51°17' E 004°21'1 1.4
2015-Apr-18 09:33N 51°16' E 004°21'2 1.8
2015-Apr-18 08:33N 51°15' E 004°24'0 0.2
2015-Apr-18 07:33N 51°15' E 004°24'0 0.0
2015-Apr-18 06:33N 51°15' E 004°24'0 0.0
2015-Apr-18 05:33N 51°16' E 004°24'0 0.0
2015-Apr-18 04:33N 51°15' E 004°24'0 0.0
2015-Apr-18 03:33N 51°15' E 004°24'0 0.0
2015-Apr-18 02:33N 51°15' E 004°24'0 0.0
2015-Apr-18 01:33N 51°15' E 004°24'0 0.0
2015-Apr-18 00:30N 51°15' E 004°24'0 0.0
2015-Apr-17 23:33N 51°15' E 004°24'0 0.0
2015-Apr-17 22:33N 51°15' E 004°24'0 0.0
2015-Apr-17 21:33N 51°15' E 004°24'0 0.0
2015-Apr-17 20:33N 51°15' E 004°24'0 0.0
2015-Apr-17 19:33N 51°16' E 004°24'0 0.0
2015-Apr-17 18:33N 51°15' E 004°24'0 0.0
2015-Apr-17 17:33N 51°15' E 004°24'0 0.0
2015-Apr-17 16:33N 51°15' E 004°24'0 0.0
2015-Apr-17 15:33N 51°15' E 004°24'0 0.0
2015-Apr-17 14:33N 51°15' E 004°24'0 0.0
2015-Apr-17 13:33N 51°16' E 004°24'0 0.0
2015-Apr-17 12:33N 51°15' E 004°24'0 0.0
2015-Apr-17 11:33N 51°15' E 004°24'0 0.0
2015-Apr-17 10:33N 51°15' E 004°24'0 0.0
2015-Apr-17 09:33N 51°15' E 004°24'0 0.0
2015-Apr-17 08:33N 51°16' E 004°24'0 0.0
2015-Apr-17 07:33N 51°15' E 004°24'0 0.0
2015-Apr-17 06:33N 51°15' E 004°24'0 0.0
2015-Apr-17 05:33N 51°16' E 004°24'0 0.0
2015-Apr-17 04:30N 51°15' E 004°24'0 0.0
2015-Apr-17 03:33N 51°15' E 004°24'0 0.0
2015-Apr-17 02:33N 51°15' E 004°24'0 0.0
2015-Apr-17 01:33N 51°15' E 004°24'0 0.0
2015-Apr-17 00:33N 51°15' E 004°24'  

Dump ship's entire track history